sensor_id;sensor_type;location;lat;lon;timestamp;P1;durP1;ratioP1;P2;durP2;ratioP2
83835;SDS011;73859;40.830;43.828;2023-12-07T00:01:23;33.30;;;17.95;;
83835;SDS011;73859;40.830;43.828;2023-12-07T00:03:51;37.90;;;18.52;;
83835;SDS011;73859;40.830;43.828;2023-12-07T00:06:18;36.80;;;17.98;;
83835;SDS011;73859;40.830;43.828;2023-12-07T00:08:46;36.78;;;18.05;;
83835;SDS011;73859;40.830;43.828;2023-12-07T00:11:13;35.00;;;16.02;;
83835;SDS011;73859;40.830;43.828;2023-12-07T00:13:40;38.80;;;18.10;;
83835;SDS011;73859;40.830;43.828;2023-12-07T00:16:08;34.38;;;17.77;;
83835;SDS011;73859;40.830;43.828;2023-12-07T00:18:35;36.22;;;17.40;;
83835;SDS011;73859;40.830;43.828;2023-12-07T00:21:03;38.90;;;16.35;;
83835;SDS011;73859;40.830;43.828;2023-12-07T00:23:30;36.55;;;18.55;;
83835;SDS011;73859;40.830;43.828;2023-12-07T00:25:58;45.13;;;18.80;;
83835;SDS011;73859;40.830;43.828;2023-12-07T00:28:25;39.70;;;18.25;;
83835;SDS011;73859;40.830;43.828;2023-12-07T00:30:53;40.05;;;20.00;;
83835;SDS011;73859;40.830;43.828;2023-12-07T00:33:21;40.70;;;18.63;;
83835;SDS011;73859;40.830;43.828;2023-12-07T00:35:48;42.75;;;17.67;;
83835;SDS011;73859;40.830;43.828;2023-12-07T00:38:16;40.72;;;18.67;;
83835;SDS011;73859;40.830;43.828;2023-12-07T00:40:44;39.40;;;18.02;;
83835;SDS011;73859;40.830;43.828;2023-12-07T00:43:11;34.03;;;17.48;;
83835;SDS011;73859;40.830;43.828;2023-12-07T00:45:39;38.65;;;18.25;;
83835;SDS011;73859;40.830;43.828;2023-12-07T00:48:07;45.17;;;18.90;;
83835;SDS011;73859;40.830;43.828;2023-12-07T00:50:34;44.33;;;20.02;;
83835;SDS011;73859;40.830;43.828;2023-12-07T00:53:02;39.90;;;18.00;;
83835;SDS011;73859;40.830;43.828;2023-12-07T00:55:29;37.88;;;17.58;;
83835;SDS011;73859;40.830;43.828;2023-12-07T00:57:57;42.17;;;18.80;;
83835;SDS011;73859;40.830;43.828;2023-12-07T01:00:24;38.13;;;18.38;;
83835;SDS011;73859;40.830;43.828;2023-12-07T01:02:51;35.13;;;18.33;;
83835;SDS011;73859;40.830;43.828;2023-12-07T01:05:19;36.00;;;17.55;;
83835;SDS011;73859;40.830;43.828;2023-12-07T01:07:46;40.47;;;18.67;;
83835;SDS011;73859;40.830;43.828;2023-12-07T01:10:14;41.03;;;19.02;;
83835;SDS011;73859;40.830;43.828;2023-12-07T01:12:41;38.33;;;19.25;;
83835;SDS011;73859;40.830;43.828;2023-12-07T01:15:08;39.50;;;18.55;;
83835;SDS011;73859;40.830;43.828;2023-12-07T01:17:36;39.17;;;19.25;;
83835;SDS011;73859;40.830;43.828;2023-12-07T01:20:05;39.60;;;18.33;;
83835;SDS011;73859;40.830;43.828;2023-12-07T01:22:39;35.58;;;17.98;;
83835;SDS011;73859;40.830;43.828;2023-12-07T01:25:08;33.13;;;17.45;;
83835;SDS011;73859;40.830;43.828;2023-12-07T01:27:36;36.78;;;18.35;;
83835;SDS011;73859;40.830;43.828;2023-12-07T01:30:03;38.90;;;17.27;;
83835;SDS011;73859;40.830;43.828;2023-12-07T01:32:32;38.97;;;18.60;;
83835;SDS011;73859;40.830;43.828;2023-12-07T01:34:59;40.35;;;20.25;;
83835;SDS011;73859;40.830;43.828;2023-12-07T01:37:27;42.63;;;18.95;;
83835;SDS011;73859;40.830;43.828;2023-12-07T01:39:56;44.20;;;18.42;;
83835;SDS011;73859;40.830;43.828;2023-12-07T01:42:23;45.13;;;18.75;;
83835;SDS011;73859;40.830;43.828;2023-12-07T01:44:52;39.33;;;18.83;;
83835;SDS011;73859;40.830;43.828;2023-12-07T01:47:20;40.10;;;17.98;;
83835;SDS011;73859;40.830;43.828;2023-12-07T01:49:47;40.15;;;17.88;;
83835;SDS011;73859;40.830;43.828;2023-12-07T01:52:15;34.72;;;18.70;;
83835;SDS011;73859;40.830;43.828;2023-12-07T01:54:44;32.30;;;17.38;;
83835;SDS011;73859;40.830;43.828;2023-12-07T01:57:11;38.70;;;17.50;;
83835;SDS011;73859;40.830;43.828;2023-12-07T01:59:39;37.65;;;17.73;;
83835;SDS011;73859;40.830;43.828;2023-12-07T02:02:06;38.40;;;18.20;;
83835;SDS011;73859;40.830;43.828;2023-12-07T02:04:34;36.22;;;17.35;;
83835;SDS011;73859;40.830;43.828;2023-12-07T02:07:02;38.60;;;18.08;;
83835;SDS011;73859;40.830;43.828;2023-12-07T02:09:31;41.13;;;19.60;;
83835;SDS011;73859;40.830;43.828;2023-12-07T02:11:59;44.25;;;20.55;;
83835;SDS011;73859;40.830;43.828;2023-12-07T02:14:27;46.10;;;21.92;;
83835;SDS011;73859;40.830;43.828;2023-12-07T02:16:56;46.35;;;20.02;;
83835;SDS011;73859;40.830;43.828;2023-12-07T02:22:09;47.67;;;21.60;;
83835;SDS011;73859;40.830;43.828;2023-12-07T02:24:46;40.85;;;18.98;;
83835;SDS011;73859;40.830;43.828;2023-12-07T02:27:29;48.90;;;21.88;;
83835;SDS011;73859;40.830;43.828;2023-12-07T02:30:01;44.05;;;21.05;;
83835;SDS011;73859;40.830;43.828;2023-12-07T02:32:31;43.00;;;21.10;;
83835;SDS011;73859;40.830;43.828;2023-12-07T02:34:59;38.63;;;20.67;;
83835;SDS011;73859;40.830;43.828;2023-12-07T02:37:28;39.03;;;19.38;;
83835;SDS011;73859;40.830;43.828;2023-12-07T02:39:59;43.80;;;20.58;;
83835;SDS011;73859;40.830;43.828;2023-12-07T02:42:27;42.38;;;19.95;;
83835;SDS011;73859;40.830;43.828;2023-12-07T02:44:55;41.10;;;18.85;;
83835;SDS011;73859;40.830;43.828;2023-12-07T02:47:23;41.92;;;20.08;;
83835;SDS011;73859;40.830;43.828;2023-12-07T02:49:50;39.88;;;19.00;;
83835;SDS011;73859;40.830;43.828;2023-12-07T02:52:18;36.67;;;18.00;;
83835;SDS011;73859;40.830;43.828;2023-12-07T02:54:45;40.38;;;19.08;;
83835;SDS011;73859;40.830;43.828;2023-12-07T02:57:12;40.97;;;19.67;;
83835;SDS011;73859;40.830;43.828;2023-12-07T02:59:42;40.50;;;19.58;;
83835;SDS011;73859;40.830;43.828;2023-12-07T03:02:10;35.08;;;18.35;;
83835;SDS011;73859;40.830;43.828;2023-12-07T03:04:37;39.50;;;20.00;;
83835;SDS011;73859;40.830;43.828;2023-12-07T03:07:04;39.33;;;19.40;;
83835;SDS011;73859;40.830;43.828;2023-12-07T03:09:32;40.38;;;19.73;;
83835;SDS011;73859;40.830;43.828;2023-12-07T03:11:59;41.42;;;19.40;;
83835;SDS011;73859;40.830;43.828;2023-12-07T03:14:27;41.67;;;19.55;;
83835;SDS011;73859;40.830;43.828;2023-12-07T03:16:54;39.58;;;19.88;;
83835;SDS011;73859;40.830;43.828;2023-12-07T03:19:22;40.22;;;19.60;;
83835;SDS011;73859;40.830;43.828;2023-12-07T03:21:49;37.95;;;18.80;;
83835;SDS011;73859;40.830;43.828;2023-12-07T03:24:17;41.42;;;20.00;;
83835;SDS011;73859;40.830;43.828;2023-12-07T03:26:44;43.03;;;19.73;;
83835;SDS011;73859;40.830;43.828;2023-12-07T03:29:11;41.22;;;21.40;;
83835;SDS011;73859;40.830;43.828;2023-12-07T03:31:39;45.67;;;20.30;;
83835;SDS011;73859;40.830;43.828;2023-12-07T03:34:06;41.10;;;18.95;;
83835;SDS011;73859;40.830;43.828;2023-12-07T03:36:33;41.95;;;20.08;;
83835;SDS011;73859;40.830;43.828;2023-12-07T03:39:01;40.95;;;19.95;;
83835;SDS011;73859;40.830;43.828;2023-12-07T03:41:30;36.97;;;17.63;;
83835;SDS011;73859;40.830;43.828;2023-12-07T03:43:57;41.75;;;18.27;;
83835;SDS011;73859;40.830;43.828;2023-12-07T03:46:25;50.10;;;19.83;;
83835;SDS011;73859;40.830;43.828;2023-12-07T03:48:52;38.20;;;18.50;;
83835;SDS011;73859;40.830;43.828;2023-12-07T03:51:20;43.58;;;20.20;;
83835;SDS011;73859;40.830;43.828;2023-12-07T03:53:48;39.25;;;18.02;;
83835;SDS011;73859;40.830;43.828;2023-12-07T03:56:29;35.72;;;18.42;;
83835;SDS011;73859;40.830;43.828;2023-12-07T03:58:57;38.10;;;17.48;;
83835;SDS011;73859;40.830;43.828;2023-12-07T04:01:26;35.50;;;16.80;;
83835;SDS011;73859;40.830;43.828;2023-12-07T04:03:58;36.58;;;17.00;;
83835;SDS011;73859;40.830;43.828;2023-12-07T04:06:27;31.70;;;16.20;;
83835;SDS011;73859;40.830;43.828;2023-12-07T04:08:55;37.45;;;18.92;;
83835;SDS011;73859;40.830;43.828;2023-12-07T04:11:24;36.72;;;17.00;;
83835;SDS011;73859;40.830;43.828;2023-12-07T04:13:51;32.60;;;16.80;;
83835;SDS011;73859;40.830;43.828;2023-12-07T04:16:19;33.83;;;16.27;;
83835;SDS011;73859;40.830;43.828;2023-12-07T04:18:47;32.90;;;14.57;;
83835;SDS011;73859;40.830;43.828;2023-12-07T04:21:14;32.75;;;14.85;;
83835;SDS011;73859;40.830;43.828;2023-12-07T04:23:42;32.50;;;14.98;;
83835;SDS011;73859;40.830;43.828;2023-12-07T04:26:09;30.00;;;14.38;;
83835;SDS011;73859;40.830;43.828;2023-12-07T04:28:37;25.98;;;13.75;;
83835;SDS011;73859;40.830;43.828;2023-12-07T04:31:04;32.42;;;15.38;;
83835;SDS011;73859;40.830;43.828;2023-12-07T04:33:32;30.60;;;15.05;;
83835;SDS011;73859;40.830;43.828;2023-12-07T04:36:00;36.17;;;16.25;;
83835;SDS011;73859;40.830;43.828;2023-12-07T04:38:28;25.67;;;14.43;;
83835;SDS011;73859;40.830;43.828;2023-12-07T04:40:56;29.90;;;14.57;;
83835;SDS011;73859;40.830;43.828;2023-12-07T04:43:23;30.55;;;13.10;;
83835;SDS011;73859;40.830;43.828;2023-12-07T04:45:51;25.45;;;13.68;;
83835;SDS011;73859;40.830;43.828;2023-12-07T04:48:19;26.88;;;13.75;;
83835;SDS011;73859;40.830;43.828;2023-12-07T04:50:46;26.58;;;13.38;;
83835;SDS011;73859;40.830;43.828;2023-12-07T04:53:14;27.20;;;11.00;;
83835;SDS011;73859;40.830;43.828;2023-12-07T04:55:42;24.23;;;12.80;;
83835;SDS011;73859;40.830;43.828;2023-12-07T04:58:14;22.98;;;12.75;;
83835;SDS011;73859;40.830;43.828;2023-12-07T05:00:42;28.45;;;13.82;;
83835;SDS011;73859;40.830;43.828;2023-12-07T05:03:11;24.77;;;12.02;;
83835;SDS011;73859;40.830;43.828;2023-12-07T05:05:39;28.10;;;13.77;;
83835;SDS011;73859;40.830;43.828;2023-12-07T05:08:06;29.23;;;13.60;;
83835;SDS011;73859;40.830;43.828;2023-12-07T05:10:35;31.20;;;14.00;;
83835;SDS011;73859;40.830;43.828;2023-12-07T05:13:05;31.33;;;14.23;;
83835;SDS011;73859;40.830;43.828;2023-12-07T05:15:32;28.80;;;14.95;;
83835;SDS011;73859;40.830;43.828;2023-12-07T05:18:00;27.83;;;15.40;;
83835;SDS011;73859;40.830;43.828;2023-12-07T05:20:28;27.15;;;14.10;;
83835;SDS011;73859;40.830;43.828;2023-12-07T05:22:58;24.40;;;12.48;;
83835;SDS011;73859;40.830;43.828;2023-12-07T05:25:25;29.95;;;14.20;;
83835;SDS011;73859;40.830;43.828;2023-12-07T05:27:54;27.85;;;14.20;;
83835;SDS011;73859;40.830;43.828;2023-12-07T05:30:21;33.28;;;15.27;;
83835;SDS011;73859;40.830;43.828;2023-12-07T05:32:48;32.15;;;15.07;;
83835;SDS011;73859;40.830;43.828;2023-12-07T05:35:17;27.85;;;13.88;;
83835;SDS011;73859;40.830;43.828;2023-12-07T05:37:44;94.25;;;46.92;;
83835;SDS011;73859;40.830;43.828;2023-12-07T05:40:12;36.58;;;20.35;;
83835;SDS011;73859;40.830;43.828;2023-12-07T05:42:39;30.90;;;15.80;;
83835;SDS011;73859;40.830;43.828;2023-12-07T05:45:07;39.28;;;19.23;;
83835;SDS011;73859;40.830;43.828;2023-12-07T05:47:38;63.30;;;32.47;;
83835;SDS011;73859;40.830;43.828;2023-12-07T05:50:06;65.55;;;35.95;;
83835;SDS011;73859;40.830;43.828;2023-12-07T05:52:37;47.10;;;25.45;;
83835;SDS011;73859;40.830;43.828;2023-12-07T05:55:04;48.17;;;26.52;;
83835;SDS011;73859;40.830;43.828;2023-12-07T05:57:32;41.72;;;21.35;;
83835;SDS011;73859;40.830;43.828;2023-12-07T06:00:00;40.83;;;21.98;;
83835;SDS011;73859;40.830;43.828;2023-12-07T06:02:38;39.92;;;20.33;;
83835;SDS011;73859;40.830;43.828;2023-12-07T06:07:34;41.92;;;22.77;;
83835;SDS011;73859;40.830;43.828;2023-12-07T06:10:02;37.80;;;21.00;;
83835;SDS011;73859;40.830;43.828;2023-12-07T06:12:33;37.08;;;20.05;;
83835;SDS011;73859;40.830;43.828;2023-12-07T06:15:00;36.65;;;19.38;;
83835;SDS011;73859;40.830;43.828;2023-12-07T06:17:27;32.05;;;17.92;;
83835;SDS011;73859;40.830;43.828;2023-12-07T06:19:55;30.17;;;16.88;;
83835;SDS011;73859;40.830;43.828;2023-12-07T06:22:23;31.05;;;16.02;;
83835;SDS011;73859;40.830;43.828;2023-12-07T06:24:51;29.88;;;14.88;;
83835;SDS011;73859;40.830;43.828;2023-12-07T06:27:19;28.40;;;14.77;;
83835;SDS011;73859;40.830;43.828;2023-12-07T06:29:47;29.02;;;13.00;;
83835;SDS011;73859;40.830;43.828;2023-12-07T06:32:15;25.63;;;14.43;;
83835;SDS011;73859;40.830;43.828;2023-12-07T06:34:43;31.40;;;14.57;;
83835;SDS011;73859;40.830;43.828;2023-12-07T06:37:11;28.75;;;17.23;;
83835;SDS011;73859;40.830;43.828;2023-12-07T06:39:39;26.88;;;13.73;;
83835;SDS011;73859;40.830;43.828;2023-12-07T06:42:06;27.05;;;12.73;;
83835;SDS011;73859;40.830;43.828;2023-12-07T06:44:34;30.58;;;13.10;;
83835;SDS011;73859;40.830;43.828;2023-12-07T06:47:02;24.67;;;13.20;;
83835;SDS011;73859;40.830;43.828;2023-12-07T06:49:31;22.80;;;12.98;;
83835;SDS011;73859;40.830;43.828;2023-12-07T06:52:15;26.45;;;12.75;;
83835;SDS011;73859;40.830;43.828;2023-12-07T06:54:43;27.25;;;13.27;;
83835;SDS011;73859;40.830;43.828;2023-12-07T06:57:10;24.52;;;12.50;;
83835;SDS011;73859;40.830;43.828;2023-12-07T06:59:37;24.35;;;12.65;;
83835;SDS011;73859;40.830;43.828;2023-12-07T07:02:05;25.52;;;12.90;;
83835;SDS011;73859;40.830;43.828;2023-12-07T07:04:33;24.55;;;11.50;;
83835;SDS011;73859;40.830;43.828;2023-12-07T07:07:00;23.42;;;12.27;;
83835;SDS011;73859;40.830;43.828;2023-12-07T07:09:28;26.15;;;12.00;;
83835;SDS011;73859;40.830;43.828;2023-12-07T07:11:55;29.65;;;13.68;;
83835;SDS011;73859;40.830;43.828;2023-12-07T07:14:22;20.83;;;10.68;;
83835;SDS011;73859;40.830;43.828;2023-12-07T07:16:50;20.50;;;11.05;;
83835;SDS011;73859;40.830;43.828;2023-12-07T07:19:18;19.90;;;10.15;;
83835;SDS011;73859;40.830;43.828;2023-12-07T07:21:46;18.40;;;9.32;;
83835;SDS011;73859;40.830;43.828;2023-12-07T07:24:14;18.05;;;9.13;;
83835;SDS011;73859;40.830;43.828;2023-12-07T07:26:41;17.13;;;8.48;;
83835;SDS011;73859;40.830;43.828;2023-12-07T07:29:09;20.52;;;10.68;;
83835;SDS011;73859;40.830;43.828;2023-12-07T07:31:36;17.15;;;9.32;;
83835;SDS011;73859;40.830;43.828;2023-12-07T07:34:04;18.95;;;10.98;;
83835;SDS011;73859;40.830;43.828;2023-12-07T07:36:32;18.85;;;9.85;;
83835;SDS011;73859;40.830;43.828;2023-12-07T07:39:00;20.80;;;10.73;;
83835;SDS011;73859;40.830;43.828;2023-12-07T07:41:27;18.08;;;10.93;;
83835;SDS011;73859;40.830;43.828;2023-12-07T07:43:55;23.20;;;11.13;;
83835;SDS011;73859;40.830;43.828;2023-12-07T07:46:22;16.63;;;9.15;;
83835;SDS011;73859;40.830;43.828;2023-12-07T07:48:49;18.27;;;9.90;;
83835;SDS011;73859;40.830;43.828;2023-12-07T07:51:17;20.17;;;11.02;;
83835;SDS011;73859;40.830;43.828;2023-12-07T07:53:45;21.05;;;10.35;;
83835;SDS011;73859;40.830;43.828;2023-12-07T07:56:12;15.77;;;9.02;;
83835;SDS011;73859;40.830;43.828;2023-12-07T07:58:39;19.58;;;9.68;;
83835;SDS011;73859;40.830;43.828;2023-12-07T08:01:07;16.35;;;8.48;;
83835;SDS011;73859;40.830;43.828;2023-12-07T08:03:34;15.75;;;8.50;;
83835;SDS011;73859;40.830;43.828;2023-12-07T08:06:02;11.90;;;7.05;;
83835;SDS011;73859;40.830;43.828;2023-12-07T08:08:30;15.00;;;7.35;;
83835;SDS011;73859;40.830;43.828;2023-12-07T08:10:58;12.30;;;6.70;;
83835;SDS011;73859;40.830;43.828;2023-12-07T08:13:26;14.95;;;6.93;;
83835;SDS011;73859;40.830;43.828;2023-12-07T08:15:54;12.02;;;6.70;;
83835;SDS011;73859;40.830;43.828;2023-12-07T08:18:24;11.82;;;5.88;;
83835;SDS011;73859;40.830;43.828;2023-12-07T08:20:53;12.52;;;6.80;;
83835;SDS011;73859;40.830;43.828;2023-12-07T08:23:20;16.58;;;7.20;;
83835;SDS011;73859;40.830;43.828;2023-12-07T08:25:48;12.48;;;6.30;;
83835;SDS011;73859;40.830;43.828;2023-12-07T08:28:16;14.27;;;6.72;;
83835;SDS011;73859;40.830;43.828;2023-12-07T08:30:44;13.95;;;7.60;;
83835;SDS011;73859;40.830;43.828;2023-12-07T08:33:12;12.38;;;6.90;;
83835;SDS011;73859;40.830;43.828;2023-12-07T08:35:39;14.57;;;7.13;;
83835;SDS011;73859;40.830;43.828;2023-12-07T08:38:06;14.07;;;7.45;;
83835;SDS011;73859;40.830;43.828;2023-12-07T08:40:34;14.00;;;7.72;;
83835;SDS011;73859;40.830;43.828;2023-12-07T08:43:04;14.15;;;7.53;;
83835;SDS011;73859;40.830;43.828;2023-12-07T08:45:31;14.15;;;7.95;;
83835;SDS011;73859;40.830;43.828;2023-12-07T08:47:59;17.52;;;8.98;;
83835;SDS011;73859;40.830;43.828;2023-12-07T08:50:27;18.05;;;8.88;;
83835;SDS011;73859;40.830;43.828;2023-12-07T08:52:54;13.30;;;7.40;;
83835;SDS011;73859;40.830;43.828;2023-12-07T08:55:30;13.65;;;7.40;;
83835;SDS011;73859;40.830;43.828;2023-12-07T08:57:57;13.70;;;6.80;;
83835;SDS011;73859;40.830;43.828;2023-12-07T09:00:26;10.63;;;5.80;;
83835;SDS011;73859;40.830;43.828;2023-12-07T09:02:53;12.98;;;6.30;;
83835;SDS011;73859;40.830;43.828;2023-12-07T09:05:21;10.55;;;6.15;;
83835;SDS011;73859;40.830;43.828;2023-12-07T09:07:48;11.48;;;6.43;;
83835;SDS011;73859;40.830;43.828;2023-12-07T09:10:16;12.70;;;6.65;;
83835;SDS011;73859;40.830;43.828;2023-12-07T09:12:43;16.85;;;7.20;;
83835;SDS011;73859;40.830;43.828;2023-12-07T09:15:11;12.85;;;6.82;;
83835;SDS011;73859;40.830;43.828;2023-12-07T09:17:39;14.32;;;6.78;;
83835;SDS011;73859;40.830;43.828;2023-12-07T09:20:09;15.90;;;7.57;;
83835;SDS011;73859;40.830;43.828;2023-12-07T09:22:45;11.75;;;6.45;;
83835;SDS011;73859;40.830;43.828;2023-12-07T09:25:15;10.75;;;6.43;;
83835;SDS011;73859;40.830;43.828;2023-12-07T09:27:43;12.93;;;6.85;;
83835;SDS011;73859;40.830;43.828;2023-12-07T09:30:11;16.08;;;8.50;;
83835;SDS011;73859;40.830;43.828;2023-12-07T09:32:40;14.73;;;6.45;;
83835;SDS011;73859;40.830;43.828;2023-12-07T09:35:11;15.05;;;6.85;;
83835;SDS011;73859;40.830;43.828;2023-12-07T09:37:50;10.80;;;5.72;;
83835;SDS011;73859;40.830;43.828;2023-12-07T09:40:18;11.88;;;6.05;;
83835;SDS011;73859;40.830;43.828;2023-12-07T09:42:48;10.32;;;5.82;;
83835;SDS011;73859;40.830;43.828;2023-12-07T09:45:17;11.70;;;6.28;;
83835;SDS011;73859;40.830;43.828;2023-12-07T09:47:50;13.10;;;7.55;;
83835;SDS011;73859;40.830;43.828;2023-12-07T09:50:21;12.90;;;7.45;;
83835;SDS011;73859;40.830;43.828;2023-12-07T09:52:50;13.10;;;6.95;;
83835;SDS011;73859;40.830;43.828;2023-12-07T09:55:33;11.60;;;6.90;;
83835;SDS011;73859;40.830;43.828;2023-12-07T09:58:05;14.80;;;7.75;;
83835;SDS011;73859;40.830;43.828;2023-12-07T10:00:35;12.88;;;7.68;;
83835;SDS011;73859;40.830;43.828;2023-12-07T10:03:05;15.57;;;8.02;;
83835;SDS011;73859;40.830;43.828;2023-12-07T10:08:33;16.10;;;8.63;;
83835;SDS011;73859;40.830;43.828;2023-12-07T10:11:08;16.27;;;8.95;;
83835;SDS011;73859;40.830;43.828;2023-12-07T10:13:38;16.00;;;8.82;;
83835;SDS011;73859;40.830;43.828;2023-12-07T10:16:09;14.60;;;8.18;;
83835;SDS011;73859;40.830;43.828;2023-12-07T10:18:42;12.60;;;7.88;;
83835;SDS011;73859;40.830;43.828;2023-12-07T10:21:11;12.88;;;8.55;;
83835;SDS011;73859;40.830;43.828;2023-12-07T10:23:41;16.52;;;8.20;;
83835;SDS011;73859;40.830;43.828;2023-12-07T10:26:15;15.70;;;8.13;;
83835;SDS011;73859;40.830;43.828;2023-12-07T10:28:48;16.70;;;8.73;;
83835;SDS011;73859;40.830;43.828;2023-12-07T10:31:21;15.20;;;8.45;;
83835;SDS011;73859;40.830;43.828;2023-12-07T10:33:49;15.82;;;9.02;;
83835;SDS011;73859;40.830;43.828;2023-12-07T10:36:17;14.88;;;7.90;;
83835;SDS011;73859;40.830;43.828;2023-12-07T10:38:44;16.80;;;9.57;;
83835;SDS011;73859;40.830;43.828;2023-12-07T10:43:42;16.02;;;9.13;;
83835;SDS011;73859;40.830;43.828;2023-12-07T10:46:13;17.23;;;8.90;;
83835;SDS011;73859;40.830;43.828;2023-12-07T10:51:23;15.63;;;7.93;;
83835;SDS011;73859;40.830;43.828;2023-12-07T10:53:53;14.45;;;7.78;;
83835;SDS011;73859;40.830;43.828;2023-12-07T10:56:28;14.77;;;8.15;;
83835;SDS011;73859;40.830;43.828;2023-12-07T10:58:59;14.60;;;9.02;;
83835;SDS011;73859;40.830;43.828;2023-12-07T11:01:27;14.68;;;8.55;;
83835;SDS011;73859;40.830;43.828;2023-12-07T11:03:58;16.05;;;9.43;;
83835;SDS011;73859;40.830;43.828;2023-12-07T11:06:26;14.18;;;8.13;;
83835;SDS011;73859;40.830;43.828;2023-12-07T11:08:56;15.07;;;8.88;;
83835;SDS011;73859;40.830;43.828;2023-12-07T11:11:39;19.70;;;9.82;;
83835;SDS011;73859;40.830;43.828;2023-12-07T11:14:11;14.57;;;8.60;;
83835;SDS011;73859;40.830;43.828;2023-12-07T11:16:40;14.63;;;8.77;;
83835;SDS011;73859;40.830;43.828;2023-12-07T11:22:12;15.38;;;9.15;;
83835;SDS011;73859;40.830;43.828;2023-12-07T11:24:53;15.82;;;9.15;;
83835;SDS011;73859;40.830;43.828;2023-12-07T11:27:22;15.85;;;8.23;;
83835;SDS011;73859;40.830;43.828;2023-12-07T11:32:18;14.00;;;8.48;;
83835;SDS011;73859;40.830;43.828;2023-12-07T11:34:54;15.15;;;9.05;;
83835;SDS011;73859;40.830;43.828;2023-12-07T11:37:27;14.98;;;8.48;;
83835;SDS011;73859;40.830;43.828;2023-12-07T11:40:30;12.02;;;6.97;;
83835;SDS011;73859;40.830;43.828;2023-12-07T11:42:59;17.98;;;8.82;;
83835;SDS011;73859;40.830;43.828;2023-12-07T11:45:37;15.68;;;8.82;;
83835;SDS011;73859;40.830;43.828;2023-12-07T11:48:12;14.20;;;8.65;;
83835;SDS011;73859;40.830;43.828;2023-12-07T11:53:28;17.17;;;8.40;;
83835;SDS011;73859;40.830;43.828;2023-12-07T11:55:59;18.20;;;8.90;;
83835;SDS011;73859;40.830;43.828;2023-12-07T11:58:34;18.60;;;9.18;;
83835;SDS011;73859;40.830;43.828;2023-12-07T12:01:07;16.08;;;8.70;;
83835;SDS011;73859;40.830;43.828;2023-12-07T12:03:35;13.20;;;8.80;;
83835;SDS011;73859;40.830;43.828;2023-12-07T12:06:05;16.88;;;8.60;;
83835;SDS011;73859;40.830;43.828;2023-12-07T12:08:35;15.18;;;8.95;;
83835;SDS011;73859;40.830;43.828;2023-12-07T12:11:02;12.32;;;8.10;;
83835;SDS011;73859;40.830;43.828;2023-12-07T12:13:33;13.93;;;8.27;;
83835;SDS011;73859;40.830;43.828;2023-12-07T12:16:02;14.63;;;9.23;;
83835;SDS011;73859;40.830;43.828;2023-12-07T12:18:33;17.95;;;10.48;;
83835;SDS011;73859;40.830;43.828;2023-12-07T12:21:02;14.68;;;9.23;;
83835;SDS011;73859;40.830;43.828;2023-12-07T12:23:30;14.60;;;9.10;;
83835;SDS011;73859;40.830;43.828;2023-12-07T12:25:57;14.73;;;9.25;;
83835;SDS011;73859;40.830;43.828;2023-12-07T12:28:25;16.80;;;9.90;;
83835;SDS011;73859;40.830;43.828;2023-12-07T12:30:54;17.90;;;9.25;;
83835;SDS011;73859;40.830;43.828;2023-12-07T12:33:22;15.48;;;9.25;;
83835;SDS011;73859;40.830;43.828;2023-12-07T12:36:00;17.48;;;9.82;;
83835;SDS011;73859;40.830;43.828;2023-12-07T12:38:30;21.67;;;10.55;;
83835;SDS011;73859;40.830;43.828;2023-12-07T12:41:08;20.25;;;9.90;;
83835;SDS011;73859;40.830;43.828;2023-12-07T12:46:03;16.75;;;9.57;;
83835;SDS011;73859;40.830;43.828;2023-12-07T12:48:33;19.10;;;9.75;;
83835;SDS011;73859;40.830;43.828;2023-12-07T12:53:35;23.08;;;10.52;;
83835;SDS011;73859;40.830;43.828;2023-12-07T12:58:30;20.58;;;10.30;;
83835;SDS011;73859;40.830;43.828;2023-12-07T13:00:58;21.88;;;9.73;;
83835;SDS011;73859;40.830;43.828;2023-12-07T13:03:25;24.38;;;11.63;;
83835;SDS011;73859;40.830;43.828;2023-12-07T13:05:53;26.80;;;13.48;;
83835;SDS011;73859;40.830;43.828;2023-12-07T13:08:20;24.48;;;12.20;;
83835;SDS011;73859;40.830;43.828;2023-12-07T13:10:48;27.38;;;12.38;;
83835;SDS011;73859;40.830;43.828;2023-12-07T13:13:16;24.77;;;12.30;;
83835;SDS011;73859;40.830;43.828;2023-12-07T13:15:44;27.40;;;10.95;;
83835;SDS011;73859;40.830;43.828;2023-12-07T13:18:11;24.83;;;13.75;;
83835;SDS011;73859;40.830;43.828;2023-12-07T13:20:39;25.05;;;13.18;;
83835;SDS011;73859;40.830;43.828;2023-12-07T13:25:48;23.40;;;11.60;;
83835;SDS011;73859;40.830;43.828;2023-12-07T13:28:15;21.58;;;11.50;;
83835;SDS011;73859;40.830;43.828;2023-12-07T13:30:44;24.63;;;11.93;;
83835;SDS011;73859;40.830;43.828;2023-12-07T13:33:11;24.27;;;11.75;;
83835;SDS011;73859;40.830;43.828;2023-12-07T13:35:53;21.98;;;12.15;;
83835;SDS011;73859;40.830;43.828;2023-12-07T13:38:23;26.00;;;13.65;;
83835;SDS011;73859;40.830;43.828;2023-12-07T13:40:50;26.83;;;13.50;;
83835;SDS011;73859;40.830;43.828;2023-12-07T13:43:18;23.95;;;12.15;;
83835;SDS011;73859;40.830;43.828;2023-12-07T13:45:46;25.85;;;13.73;;
83835;SDS011;73859;40.830;43.828;2023-12-07T13:48:13;23.98;;;11.98;;
83835;SDS011;73859;40.830;43.828;2023-12-07T13:50:42;23.73;;;12.32;;
83835;SDS011;73859;40.830;43.828;2023-12-07T13:53:10;28.05;;;12.82;;
83835;SDS011;73859;40.830;43.828;2023-12-07T13:55:38;23.63;;;13.02;;
83835;SDS011;73859;40.830;43.828;2023-12-07T13:58:06;26.80;;;14.10;;
83835;SDS011;73859;40.830;43.828;2023-12-07T14:00:34;27.92;;;13.55;;
83835;SDS011;73859;40.830;43.828;2023-12-07T14:03:01;46.80;;;22.52;;
83835;SDS011;73859;40.830;43.828;2023-12-07T14:05:30;48.13;;;21.88;;
83835;SDS011;73859;40.830;43.828;2023-12-07T14:07:58;38.47;;;20.17;;
83835;SDS011;73859;40.830;43.828;2023-12-07T14:10:25;39.95;;;20.73;;
83835;SDS011;73859;40.830;43.828;2023-12-07T14:12:56;27.48;;;13.70;;
83835;SDS011;73859;40.830;43.828;2023-12-07T14:15:23;26.90;;;12.68;;
83835;SDS011;73859;40.830;43.828;2023-12-07T14:18:08;33.38;;;14.73;;
83835;SDS011;73859;40.830;43.828;2023-12-07T14:20:36;24.65;;;11.85;;
83835;SDS011;73859;40.830;43.828;2023-12-07T14:23:23;28.60;;;13.50;;
83835;SDS011;73859;40.830;43.828;2023-12-07T14:25:51;25.50;;;13.48;;
83835;SDS011;73859;40.830;43.828;2023-12-07T14:28:18;30.38;;;13.77;;
83835;SDS011;73859;40.830;43.828;2023-12-07T14:30:46;29.02;;;14.73;;
83835;SDS011;73859;40.830;43.828;2023-12-07T14:33:13;32.38;;;15.45;;
83835;SDS011;73859;40.830;43.828;2023-12-07T14:35:41;29.13;;;14.25;;
83835;SDS011;73859;40.830;43.828;2023-12-07T14:38:08;29.92;;;13.68;;
83835;SDS011;73859;40.830;43.828;2023-12-07T14:40:35;31.13;;;14.85;;
83835;SDS011;73859;40.830;43.828;2023-12-07T14:43:03;29.02;;;14.77;;
83835;SDS011;73859;40.830;43.828;2023-12-07T14:45:30;32.70;;;15.88;;
83835;SDS011;73859;40.830;43.828;2023-12-07T14:47:58;34.08;;;18.33;;
83835;SDS011;73859;40.830;43.828;2023-12-07T14:50:25;34.80;;;17.05;;
83835;SDS011;73859;40.830;43.828;2023-12-07T14:52:53;37.60;;;18.05;;
83835;SDS011;73859;40.830;43.828;2023-12-07T14:55:20;37.45;;;17.02;;